Nearby METAR Reports

 

KSJC - San Jose, California, USA
Distance from station: NØ 14km
Opdateret: 12/11/2019 11:53
Klart
Klart
 Vind retning calm
Vind: Vindstille
Temperatur: 13°C
Dugpunkt: 7°C
Fugtighed: 67%
Barometer: 1017.6 hPa
Clouds: Klart
Visibility: 16 km
2019/11/12 10:53 KSJC 121053Z AUTO 00000KT 10SM CLR 13/07 A3005 RMK AO2 SLP174 T01280067
KNUQ - Moffett Nas/Mtn, California, USA
Distance from station: N 14km
Opdateret: 08/11/2019 16:56
NOT Current

 
Barometer: 1023.4 hPa
2019/11/08 15:56 KNUQ 081556Z A3022 RMK AO2 SLP237 PWINO $
 
KPAO - Palo Alto, California, USA
Distance from station: NNV 23km
Opdateret: 12/11/2019 05:47
NOT Current
Klart
Klart
 Vind retning calm
Vind: Vindstille
Temperatur: 13°C
Dugpunkt: 11°C
Fugtighed: 88%
Barometer: 1017.6 hPa
Clouds: Klart
Visibility: 16 km
2019/11/12 04:47 KPAO 120447Z 00000KT 10SM SKC 13/11 A3005 RMK LSAT
KRHV - San Jose/Reid, California, USA
Distance from station: ØNØ 19km
Opdateret: 12/11/2019 06:47
NOT Current
Delvist skyet
Delvist skyet
 Vind retning calm
Vind: Vindstille
Temperatur: 14°C
Dugpunkt: 7°C
Fugtighed: 63%
Barometer: 1018.3 hPa
Clouds: Delvist skyet
Visibility: 16 km
Cloud details: Delvist skyet 2134 m
2019/11/12 05:47 KRHV 120547Z 00000KT 10SM SCT070 14/07 A3007
 
KOAK - Oakland, California, USA
Distance from station: NNV 50km
Opdateret: 12/11/2019 11:53
Few Clouds
Few Clouds
 Vind retning ØNØ
Vind: ØNØ 6 km/h
Temperatur: 10°C
Dugpunkt: 8°C
Fugtighed: 88%
Barometer: 1017.6 hPa
Clouds: Few Clouds
Visibility: 16 km
Cloud details: Few Clouds 6096 m
2019/11/12 10:53 KOAK 121053Z 07003KT 10SM FEW200 10/08 A3005 RMK AO2 SLP176 T01000078
KSQL - San Carlos Airpo, California, USA
Distance from station: NV 34km
Opdateret: 12/11/2019 12:35
Klart
Klart
 Vind retning calm
Vind: Vindstille
Temperatur: 11°C
Dugpunkt: 8°C
Fugtighed: 82%
Barometer: 1017.6 hPa
Clouds: Klart
Visibility: 16 km
2019/11/12 11:35 KSQL 121135Z AUTO 00000KT 10SM CLR 11/08 A3005 RMK AO2
 
KSFO - San Francisco, California, USA
Distance from station: NV 49km
Opdateret: 12/11/2019 11:56
Klart
Klart
 Vind retning V
Vind: V 7 km/h
Temperatur: 12°C
Dugpunkt: 9°C
Fugtighed: 82%
Barometer: 1017.3 hPa
Clouds: Klart
Visibility: 16 km
2019/11/12 10:56 KSFO 121056Z 27004KT 10SM CLR 12/09 A3004 RMK AO2 SLP173 T01220089 $
KE16 - San Martin, California, USA
Distance from station: ØSØ 43km
Opdateret: 12/11/2019 12:30

 Vind retning calm
Vind: Vindstille
Temperatur: 8°C
Dugpunkt: 4°C
Fugtighed: 76%
Barometer: 1018.3 hPa
Visibility: 16 km
2019/11/12 11:30 KE16 121130Z AUTO 00000KT 10SM 08/04 A3007 RMK AO2 PWINO PNO
 
KWVI - Watsonville, California, USA
Distance from station: SSØ 44km
Opdateret: 12/11/2019 11:53
Klart
Klart
 Vind retning N
Vind: N 6 km/h
Temperatur: 9°C
Dugpunkt: 8°C
Fugtighed: 94%
Barometer: 1017.9 hPa
Clouds: Klart
Visibility: 16 km
2019/11/12 10:53 KWVI 121053Z AUTO 36003KT 10SM CLR 09/08 A3006 RMK AO2 SLP177 T00890078
KHAF - Half Moon Bay, California, USA
Distance from station: VNV 50km
Opdateret: 12/11/2019 12:35
Fog, Overskyet
Fog, Overskyet
 Vind retning calm
Vind: Vindstille
Temperatur: 10°C
Dugpunkt: 9°C
Fugtighed: 94%
Barometer: 1017.9 hPa
Oversigt: Fog
Clouds: Overskyet
Visibility: 0.4 km
Cloud details: Overskyet 61 m
2019/11/12 11:35 KHAF 121135Z AUTO 00000KT M1/4SM FG OVC002 10/09 A3006 RMK AO2
 
KHWD - Hayward, California, USA
Distance from station: N 44km
Opdateret: 12/11/2019 11:54
Klart
Klart
 Vind retning ØNØ
Vind: ØNØ 6 km/h
Temperatur: 12°C
Dugpunkt: 6°C
Fugtighed: 67%
Barometer: 1017.3 hPa
Clouds: Klart
Visibility: 16 km
2019/11/12 10:54 KHWD 121054Z AUTO 06003KT 10SM CLR 12/06 A3004 RMK AO2 SLP182 T01170056 $
KLVK - Livermore, California, USA
Distance from station: NNØ 51km
Opdateret: 12/11/2019 11:53
Klart
Klart
 Vind retning calm
Vind: Vindstille
Temperatur: 10°C
Dugpunkt: 3°C
Fugtighed: 62%
Barometer: 1017.6 hPa
Clouds: Klart
Visibility: 16 km
2019/11/12 10:53 KLVK 121053Z AUTO 00000KT 10SM CLR 10/03 A3005 RMK AO2 SLP173 T01000028